Time;durP1;ratioP1;P1;durP2;ratioP2;P2;SDS_P1;SDS_P2;PMS_P1;PMS_P2;Temp;Humidity;BMP_temperature;BMP_pressure;BME280_temperature;BME280_humidity;BME280_pressure;Samples;Min_cycle;Max_cycle;Signal;HPM_P1;HPM_P2
2022/08/29 00:02:58;;;;;;;7.97;7.27;;;;;;;21.83;58.97;98940.81;7029519;28;20265;-80
2022/08/29 00:06:20;;;;;;;11.30;7.93;;;;;;;21.33;60.09;98908.91;7029561;28;20221;-79
2022/08/29 00:09:41;;;;;;;15.43;8.27;;;;;;;21.54;59.60;98936.91;7029879;28;20248;-79
2022/08/29 00:13:04;;;;;;;10.47;7.10;;;;;;;21.55;59.29;98916.59;7037338;28;20196;-79
2022/08/29 00:16:25;;;;;;;9.57;7.00;;;;;;;21.51;59.38;98942.09;7039318;28;20252;-79
2022/08/29 00:19:48;;;;;;;8.93;7.70;;;;;;;21.26;59.61;98925.59;7038537;28;20243;-79
2022/08/29 00:23:10;;;;;;;12.33;9.27;;;;;;;21.40;59.19;98921.25;7039496;28;20193;-79
2022/08/29 00:26:32;;;;;;;9.23;8.33;;;;;;;21.61;59.34;98931.16;7038946;28;20240;-80
2022/08/29 00:29:53;;;;;;;13.20;8.07;;;;;;;21.27;59.63;98940.97;7038151;28;20311;-79
2022/08/29 00:33:15;;;;;;;9.50;8.10;;;;;;;21.33;59.85;98939.88;7039354;28;20212;-79
2022/08/29 00:36:38;;;;;;;10.03;7.57;;;;;;;21.39;59.58;98936.06;7039007;28;20233;-80
2022/08/29 00:39:59;;;;;;;9.43;8.43;;;;;;;20.77;61.13;98930.59;7039107;28;20205;-79
2022/08/29 00:43:24;;;;;;;9.87;8.90;;;;;;;20.82;61.76;98929.00;7038740;28;20287;-79
2022/08/29 00:46:52;;;;;;;9.73;8.73;;;;;;;21.13;61.21;98937.91;7039069;28;20235;-79
2022/08/29 00:50:28;;;;;;;9.37;8.47;;;;;;;21.16;60.32;98922.03;7038652;28;20227;-79
2022/08/29 00:53:54;;;;;;;9.67;8.80;;;;;;;21.23;60.10;98940.69;7039569;28;20181;-80
2022/08/29 00:57:15;;;;;;;12.50;8.70;;;;;;;;;;7039010;28;20253;-80
2022/08/29 01:00:37;;;;;;;9.27;8.10;;;;;;;21.11;60.79;98928.28;7038983;28;20201;-80
2022/08/29 01:03:59;;;;;;;10.77;8.80;;;;;;;21.20;60.70;98943.16;7038791;28;20670;-80
2022/08/29 01:07:21;;;;;;;12.10;9.70;;;;;;;20.99;61.34;98954.31;7040233;28;20312;-79
2022/08/29 01:14:24;;;;;;;10.43;8.77;;;;;;;20.95;61.28;98955.94;7038524;28;20228;-80
2022/08/29 01:17:46;;;;;;;13.30;8.83;;;;;;;20.77;61.11;98923.47;7040141;28;20181;-79
2022/08/29 01:21:15;;;;;;;11.03;8.43;;;;;;;20.78;60.87;98925.97;7040713;28;20215;-79
2022/08/29 01:24:40;;;;;;;9.20;8.00;;;;;;;21.27;59.93;98958.25;7036309;28;20292;-79
2022/08/29 01:28:07;;;;;;;10.37;8.53;;;;;;;21.24;59.61;98947.00;7037244;28;20236;-79
2022/08/29 01:31:37;;;;;;;11.40;9.00;;;;;;;20.96;60.34;98952.94;7037815;28;20707;-79
2022/08/29 01:34:58;;;;;;;10.30;9.10;;;;;;;20.65;60.85;98948.38;7040904;28;20389;-79
2022/08/29 01:38:27;;;;;;;10.30;9.23;;;;;;;20.67;61.41;98960.69;7050121;28;20264;-79
2022/08/29 01:41:51;;;;;;;10.83;9.27;;;;;;;20.55;61.81;98962.00;7043394;28;20192;-80
2022/08/29 01:45:12;;;;;;;10.47;8.93;;;;;;;20.79;61.24;98957.75;7035478;28;20240;-80
2022/08/29 01:48:37;;;;;;;13.97;8.43;;;;;;;20.88;60.67;98956.16;7033369;28;20236;-80
2022/08/29 01:51:59;;;;;;;11.07;9.57;;;;;;;20.62;61.49;98964.50;7051832;28;20263;-79
2022/08/29 01:55:20;;;;;;;9.37;8.47;;;;;;;20.57;61.54;98957.09;7047848;28;20233;-80
2022/08/29 01:58:44;;;;;;;10.83;9.73;;;;;;;20.24;62.27;98942.91;7037595;28;20286;-80
2022/08/29 02:02:10;;;;;;;11.13;9.10;;;;;;;20.25;62.40;98964.56;7036351;28;20270;-80
2022/08/29 02:05:31;;;;;;;12.83;8.80;;;;;;;20.20;62.25;98950.00;7028763;28;20214;-80
2022/08/29 02:08:54;;;;;;;10.70;9.40;;;;;;;20.52;61.74;98953.50;7006886;28;20209;-81
2022/08/29 02:12:16;;;;;;;10.53;9.00;;;;;;;20.51;61.70;98960.06;7004519;28;20312;-80
2022/08/29 02:15:39;;;;;;;9.53;8.60;;;;;;;20.60;61.06;98962.03;7005383;28;20712;-80
2022/08/29 02:19:00;;;;;;;10.17;9.13;;;;;;;20.66;60.34;98955.50;7004966;28;20212;-80
2022/08/29 02:22:22;;;;;;;10.00;9.00;;;;;;;20.48;61.30;98968.81;7005470;28;20255;-80
2022/08/29 02:25:46;;;;;;;11.23;9.10;;;;;;;20.36;61.40;98974.50;7005486;28;20631;-80
2022/08/29 02:29:08;;;;;;;8.60;7.80;;;;;;;20.55;60.46;98963.91;7004901;28;20688;-80
2022/08/29 02:32:31;;;;;;;11.77;8.10;;;;;;;20.75;60.04;98966.78;7004910;28;20714;-81
2022/08/29 02:35:53;;;;;;;11.97;7.93;;;;;;;20.56;59.74;98946.38;7005219;28;20222;-80
2022/08/29 02:39:15;;;;;;;11.47;7.83;;;;;;;20.58;59.90;98958.72;7004483;28;20206;-80
2022/08/29 02:42:37;;;;;;;11.77;8.93;;;;;;;20.55;60.14;98953.78;7004762;28;20247;-80
2022/08/29 02:45:58;;;;;;;9.13;7.77;;;;;;;20.55;59.66;98953.78;7004938;28;20235;-80
2022/08/29 02:49:21;;;;;;;11.63;7.83;;;;;;;20.45;58.58;98931.81;7004360;28;20237;-81
2022/08/29 02:52:43;;;;;;;13.20;9.00;;;;;;;19.72;60.87;98953.69;7005112;28;20210;-80
2022/08/29 02:56:05;;;;;;;13.17;9.70;;;;;;;19.33;61.85;98930.31;7004675;28;20260;-80
2022/08/29 02:59:27;;;;;;;12.70;9.00;;;;;;;19.76;61.86;98957.53;7004669;28;20295;-80
2022/08/29 03:02:49;;;;;;;10.97;9.00;;;;;;;19.84;61.63;98951.59;7005266;28;20220;-80
2022/08/29 03:06:12;;;;;;;12.20;9.20;;;;;;;20.07;61.07;98961.41;7005592;28;20253;-80
2022/08/29 03:09:33;;;;;;;11.97;7.80;;;;;;;20.12;61.01;98956.81;7004093;28;20666;-80
2022/08/29 03:12:55;;;;;;;10.07;8.97;;;;;;;20.08;60.47;98927.47;7003134;28;20229;-80
2022/08/29 03:16:17;;;;;;;9.40;7.87;;;;;;;20.37;59.76;98967.09;7004610;28;20245;-80
2022/08/29 03:19:39;;;;;;;10.77;8.03;;;;;;;20.04;59.68;98920.84;7004763;28;20225;-80
2022/08/29 03:23:02;;;;;;;10.23;8.47;;;;;;;19.86;59.95;98946.69;7004563;28;20205;-80
2022/08/29 03:26:25;;;;;;;9.43;8.30;;;;;;;19.98;59.84;98952.81;7004060;28;20291;-80
2022/08/29 03:29:47;;;;;;;11.40;7.83;;;;;;;19.97;60.23;98936.63;7003660;28;20263;-81
2022/08/29 03:33:08;;;;;;;11.87;7.87;;;;;;;19.89;60.66;98948.91;7004296;28;20210;-80
2022/08/29 03:36:31;;;;;;;10.40;7.87;;;;;;;19.93;60.34;98949.22;7004069;28;20249;-80
2022/08/29 03:39:54;;;;;;;12.53;8.63;;;;;;;19.24;61.85;98950.19;7003830;28;20209;-80
2022/08/29 03:43:18;;;;;;;11.37;9.37;;;;;;;19.04;62.88;98955.41;7004938;28;20597;-80
2022/08/29 03:46:39;;;;;;;17.37;9.50;;;;;;;19.37;62.63;98972.50;7003735;28;20340;-80
2022/08/29 03:50:01;;;;;;;9.67;8.73;;;;;;;19.31;62.04;98928.94;7004328;28;20228;-80
2022/08/29 03:53:22;;;;;;;11.57;8.93;;;;;;;19.51;61.85;98970.97;7004112;28;20201;-80
2022/08/29 03:56:46;;;;;;;11.40;9.30;;;;;;;19.31;61.83;98973.53;7004298;28;20237;-80
2022/08/29 04:00:10;;;;;;;11.07;9.43;;;;;;;19.58;61.48;98973.53;7019124;28;20204;-80
2022/08/29 04:03:32;;;;;;;8.83;7.93;;;;;;;19.72;60.96;98961.91;7015946;28;20353;-81
2022/08/29 04:06:53;;;;;;;10.40;8.20;;;;;;;19.59;60.47;98967.81;7024348;28;20284;-80
2022/08/29 04:10:18;;;;;;;12.90;8.87;;;;;;;19.46;60.72;98973.66;7024419;28;20356;-81
2022/08/29 04:13:42;;;;;;;11.60;8.93;;;;;;;19.35;61.16;98974.63;7014894;28;20204;-80
2022/08/29 04:17:03;;;;;;;9.77;8.77;;;;;;;19.37;61.45;98971.66;7022378;28;20217;-80
2022/08/29 04:20:27;;;;;;;9.20;8.20;;;;;;;19.54;60.75;98983.31;7034462;28;20675;-80
2022/08/29 04:23:49;;;;;;;10.03;8.30;;;;;;;19.37;61.08;98977.13;7018907;28;20583;-80
2022/08/29 04:27:11;;;;;;;9.93;8.57;;;;;;;19.36;60.60;98975.47;7020504;28;20262;-80
2022/08/29 04:30:34;;;;;;;11.43;8.33;;;;;;;19.42;61.01;98974.44;7020497;28;20248;-81
2022/08/29 04:33:56;;;;;;;10.80;8.60;;;;;;;19.57;60.57;98991.84;7020736;28;20293;-80
2022/08/29 04:37:18;;;;;;;12.20;8.70;;;;;;;19.61;60.32;98986.66;7017233;28;20679;-80
2022/08/29 04:40:41;;;;;;;10.73;8.37;;;;;;;19.48;60.20;98985.19;7037991;28;20201;-80
2022/08/29 04:44:03;;;;;;;12.03;8.77;;;;;;;19.21;60.32;98965.19;7030466;28;20231;-80
2022/08/29 04:47:26;;;;;;;16.70;8.53;;;;;;;19.28;60.58;98943.13;7007650;28;20208;-80
2022/08/29 04:50:53;;;;;;;10.43;8.17;;;;;;;19.55;60.50;98993.19;7004280;28;20298;-80
2022/08/29 04:54:15;;;;;;;15.27;10.33;;;;;;;19.30;60.83;98987.44;7015642;28;20225;-80
2022/08/29 04:57:37;;;;;;;12.57;9.47;;;;;;;19.02;60.98;98952.09;7032472;28;20741;-80
2022/08/29 05:00:59;;;;;;;16.03;10.03;;;;;;;19.11;61.39;98977.91;7036473;28;20205;-80
2022/08/29 05:04:22;;;;;;;12.57;8.90;;;;;;;19.30;61.64;98990.16;7023886;28;20269;-80
2022/08/29 05:07:45;;;;;;;10.40;8.70;;;;;;;19.44;61.04;98994.97;7019330;28;20212;-80
2022/08/29 05:11:10;;;;;;;10.17;9.00;;;;;;;19.58;60.43;98993.47;7015526;28;20256;-81
2022/08/29 05:14:33;;;;;;;9.40;8.47;;;;;;;19.69;60.21;98991.69;7016345;28;20251;-79
2022/08/29 05:17:59;;;;;;;8.67;7.87;;;;;;;19.32;61.02;98996.19;7030897;28;20237;-81
2022/08/29 05:21:27;;;;;;;11.60;8.83;;;;;;;19.17;61.55;99001.47;7029437;28;20198;-80
2022/08/29 05:24:49;;;;;;;10.77;9.60;;;;;;;19.04;62.51;99002.69;7031048;28;20223;-81
2022/08/29 05:28:12;;;;;;;10.00;9.03;;;;;;;19.19;62.32;99005.59;7017281;28;20201;-81
2022/08/29 05:31:35;;;;;;;9.27;8.07;;;;;;;19.55;60.84;98995.91;7034617;28;20232;-79
2022/08/29 05:34:57;;;;;;;8.30;7.50;;;;;;;20.04;59.02;99005.69;7017963;28;20241;-79
2022/08/29 05:38:20;;;;;;;7.97;7.17;;;;;;;19.65;59.12;98979.59;7031272;28;20193;-79
2022/08/29 05:41:42;;;;;;;12.23;8.80;;;;;;;19.30;61.73;99017.50;7033437;28;20278;-79
2022/08/29 05:45:04;;;;;;;10.40;8.40;;;;;;;19.81;60.83;99023.25;7030494;28;20232;-79
2022/08/29 05:48:25;;;;;;;9.47;8.67;;;;;;;20.50;59.60;99024.16;7005292;28;20205;-79
2022/08/29 05:51:47;;;;;;;11.67;8.73;;;;;;;20.59;58.13;99017.94;7026236;28;20363;-79
2022/08/29 05:55:11;;;;;;;8.27;7.47;;;;;;;21.38;56.83;99019.44;7033740;28;20275;-79
2022/08/29 05:58:32;;;;;;;9.43;7.67;;;;;;;21.90;55.30;99020.97;7015824;28;20202;-79
2022/08/29 06:01:55;;;;;;;9.17;8.37;;;;;;;21.78;56.45;99025.91;7015325;28;20201;-79
2022/08/29 06:05:16;;;;;;;9.83;7.40;;;;;;;22.06;55.13;99022.66;7034551;28;20302;-79
2022/08/29 06:08:38;;;;;;;11.00;6.80;;;;;;;22.22;54.69;99018.81;7045424;28;20207;-79
2022/08/29 06:12:01;;;;;;;7.03;6.43;;;;;;;22.88;52.37;98997.56;7049616;28;20274;-79
2022/08/29 06:15:24;;;;;;;8.33;7.53;;;;;;;23.06;52.49;99011.53;7028097;28;20221;-80
2022/08/29 06:18:46;;;;;;;9.60;6.23;;;;;;;23.58;51.59;99025.66;7014846;28;20213;-81
2022/08/29 06:22:10;;;;;;;8.00;7.20;;;;;;;22.78;52.51;98995.66;7066278;28;20202;-81
2022/08/29 06:25:31;;;;;;;8.93;8.13;;;;;;;22.92;53.85;99023.41;7065696;28;20232;-80
2022/08/29 06:28:54;;;;;;;8.47;7.57;;;;;;;23.35;53.26;99025.47;7065800;28;20253;-79
2022/08/29 06:32:16;;;;;;;9.40;8.40;;;;;;;22.53;54.47;99016.91;7066694;28;20226;-81
2022/08/29 06:35:37;;;;;;;9.47;7.97;;;;;;;22.88;55.31;99039.66;7054097;28;20723;-81
2022/08/29 06:39:02;;;;;;;8.87;7.97;;;;;;;23.41;53.69;99038.94;7018521;28;20291;-80
2022/08/29 06:42:24;;;;;;;8.57;7.37;;;;;;;23.53;53.18;99027.59;7020366;28;20212;-80
2022/08/29 06:45:46;;;;;;;8.43;7.27;;;;;;;24.04;51.97;99043.59;7036854;28;20229;-80
2022/08/29 06:49:10;;;;;;;11.57;8.03;;;;;;;23.86;52.50;99040.63;7035938;28;20203;-80
2022/08/29 06:52:32;;;;;;;9.00;7.90;;;;;;;23.79;52.74;99040.94;7027777;28;20230;-80
2022/08/29 06:55:53;;;;;;;9.47;8.47;;;;;;;23.78;52.23;99020.03;7034622;28;20236;-79
2022/08/29 06:59:15;;;;;;;10.00;7.63;;;;;;;24.71;50.13;99043.59;7040937;28;20222;-80
2022/08/29 07:02:38;;;;;;;9.50;8.23;;;;;;;24.39;51.13;99054.34;7035264;28;20204;-80
2022/08/29 07:06:00;;;;;;;10.53;8.37;;;;;;;24.96;50.13;99043.31;7039910;28;20250;-79
2022/08/29 07:09:21;;;;;;;10.87;8.50;;;;;;;24.87;49.91;99058.88;7034768;28;20206;-80
2022/08/29 07:12:43;;;;;;;8.20;7.40;;;;;;;25.45;49.21;99038.38;7035195;28;20227;-79
2022/08/29 07:16:08;;;;;;;9.13;7.83;;;;;;;25.05;50.40;99052.63;7010995;28;20223;-81
2022/08/29 07:19:30;;;;;;;8.30;7.50;;;;;;;24.83;49.24;99054.25;7023676;28;20236;-81
2022/08/29 07:22:52;;;;;;;8.37;7.60;;;;;;;24.75;50.00;99057.63;7031749;28;20342;-81
2022/08/29 07:26:16;;;;;;;8.70;7.70;;;;;;;25.41;49.12;99051.13;7033318;28;20254;-81
2022/08/29 07:29:38;;;;;;;10.63;7.83;;;;;;;25.23;48.51;99042.75;7033822;28;20204;-79
2022/08/29 07:32:59;;;;;;;8.37;7.50;;;;;;;25.48;48.77;99054.34;7037739;28;20258;-80
2022/08/29 07:36:22;;;;;;;9.13;7.70;;;;;;;26.28;47.31;99053.25;7032862;28;20236;-80
2022/08/29 07:39:44;;;;;;;7.80;6.90;;;;;;;26.36;46.21;99047.00;7039278;28;20201;-80
2022/08/29 07:43:06;;;;;;;12.10;7.77;;;;;;;25.77;45.82;98994.28;7042081;28;20199;-81
2022/08/29 07:46:28;;;;;;;8.37;7.47;;;;;;;25.52;47.67;99047.13;7045009;28;20216;-81
2022/08/29 07:49:49;;;;;;;8.73;7.17;;;;;;;26.23;46.34;99052.47;7045104;28;20215;-81
2022/08/29 07:53:12;;;;;;;10.40;7.73;;;;;;;26.31;45.38;99018.63;7046475;28;20232;-81
2022/08/29 07:56:41;;;;;;;11.10;7.23;;;;;;;27.24;44.37;99042.16;7040508;28;20244;-81
2022/08/29 08:00:05;;;;;;;8.40;7.53;;;;;;;27.30;43.24;99046.44;7041273;28;20208;-82
2022/08/29 08:03:27;;;;;;;10.13;7.50;;;;;;;27.97;42.42;99000.41;7015615;28;20206;-80
2022/08/29 08:06:49;;;;;;;7.87;7.13;;;;;;;28.01;42.62;99051.34;7014571;28;20217;-80
2022/08/29 08:10:12;;;;;;;11.43;6.90;;;;;;;27.93;41.97;99027.94;7016220;28;20663;-80
2022/08/29 08:13:34;;;;;;;8.57;6.87;;;;;;;27.01;44.44;99028.47;7007141;28;20230;-80
2022/08/29 08:16:56;;;;;;;12.90;7.70;;;;;;;28.14;42.08;99047.69;7003107;28;20290;-80
2022/08/29 08:20:17;;;;;;;11.50;8.13;;;;;;;28.23;41.83;99048.56;7029710;28;20753;-80
2022/08/29 08:23:39;;;;;;;9.20;7.17;;;;;;;27.18;42.96;99003.81;7003685;28;20230;-80
2022/08/29 08:27:02;;;;;;;9.03;7.00;;;;;;;27.98;43.14;99054.72;7002314;28;20237;-80
2022/08/29 08:30:24;;;;;;;8.77;7.10;;;;;;;28.49;41.14;99039.34;7000844;28;20206;-81
2022/08/29 08:33:46;;;;;;;7.70;6.97;;;;;;;29.13;39.97;99062.97;7005381;28;20271;-80
2022/08/29 08:37:08;;;;;;;8.97;7.17;;;;;;;29.00;40.78;99053.59;7006622;28;20213;-80
2022/08/29 08:40:30;;;;;;;8.53;6.83;;;;;;;29.03;40.16;99044.63;7006314;28;20217;-80
2022/08/29 08:43:55;;;;;;;9.10;6.67;;;;;;;29.28;39.72;99049.47;7006500;28;20272;-80
2022/08/29 08:47:23;;;;;;;6.93;6.17;;;;;;;30.13;37.49;99043.38;7007273;28;20204;-80
2022/08/29 08:50:48;;;;;;;6.77;6.10;;;;;;;30.54;37.60;99054.81;7013997;28;20203;-80
2022/08/29 08:54:15;;;;;;;10.13;6.23;;;;;;;29.50;38.24;99054.97;7034984;28;20229;-80
2022/08/29 08:57:40;;;;;;;9.57;6.80;;;;;;;29.41;39.66;99053.28;7033918;28;20568;-80
2022/08/29 09:01:11;;;;;;;6.80;6.07;;;;;;;30.62;37.10;99043.69;7034566;28;20289;-80
2022/08/29 09:04:48;;;;;;;6.93;5.83;;;;;;;30.93;37.16;99043.47;7034653;28;20232;-79
2022/08/29 09:08:19;;;;;;;6.97;5.17;;;;;;;31.26;35.75;99031.41;7033595;28;20251;-79
2022/08/29 09:11:50;;;;;;;7.73;5.00;;;;;;;31.68;34.76;99016.44;7034813;28;20260;-80
2022/08/29 09:15:14;;;;;;;9.57;6.00;;;;;;;30.42;36.37;99041.56;7034166;28;20235;-80
2022/08/29 09:18:39;;;;;;;7.10;5.00;;;;;;;30.91;36.78;99037.41;7033389;28;20345;-80
2022/08/29 09:22:08;;;;;;;8.73;5.90;;;;;;;30.59;36.83;99038.75;7034877;28;20197;-80
2022/08/29 09:25:34;;;;;;;8.33;5.17;;;;;;;31.33;36.12;99034.50;7033899;28;20242;-80
2022/08/29 09:28:57;;;;;;;5.63;4.90;;;;;;;31.46;35.34;99035.41;7033703;28;20233;-81
2022/08/29 09:32:19;;;;;;;6.00;4.30;;;;;;;31.76;34.95;99042.66;7034296;28;20235;-80
2022/08/29 09:35:44;;;;;;;5.13;4.47;;;;;;;29.87;36.26;99034.97;7033332;28;20313;-80
2022/08/29 09:39:15;;;;;;;5.60;4.97;;;;;;;30.13;36.55;99019.13;7031386;28;20200;-80
2022/08/29 09:42:40;;;;;;;5.53;5.00;;;;;;;29.48;36.47;99026.66;7032599;28;20209;-79
2022/08/29 09:46:07;;;;;;;7.43;4.60;;;;;;;31.08;35.25;99043.75;7032967;28;20377;-80
2022/08/29 09:49:28;;;;;;;5.70;4.50;;;;;;;31.90;33.56;99032.88;7032710;28;20240;-80
2022/08/29 09:52:54;;;;;;;6.50;4.83;;;;;;;31.78;33.39;99032.81;7033487;28;20241;-80
2022/08/29 09:56:19;;;;;;;6.40;4.97;;;;;;;29.79;36.73;99032.97;7033308;28;20320;-80
2022/08/29 09:59:44;;;;;;;8.03;4.97;;;;;;;30.06;35.73;99038.25;7032474;28;20276;-80
2022/08/29 10:03:07;;;;;;;5.70;4.80;;;;;;;30.97;35.60;99013.81;7032545;28;20198;-80
2022/08/29 10:06:31;;;;;;;8.73;5.57;;;;;;;31.27;34.89;99037.81;7033081;28;20230;-80
2022/08/29 10:10:01;;;;;;;5.40;4.90;;;;;;;32.09;33.40;99029.63;7032642;28;20586;-80
2022/08/29 10:13:25;;;;;;;5.03;4.63;;;;;;;31.87;34.03;99029.97;7032592;28;20211;-80
2022/08/29 10:16:53;;;;;;;5.73;4.77;;;;;;;32.14;33.74;99010.72;7032703;28;20236;-80
2022/08/29 10:20:14;;;;;;;4.70;4.27;;;;;;;32.26;32.70;98998.84;7032551;28;20188;-80
2022/08/29 10:23:43;;;;;;;6.90;4.80;;;;;;;32.80;32.56;99020.00;7032584;28;20334;-80
2022/08/29 10:27:23;;;;;;;8.17;4.97;;;;;;;31.65;33.35;99031.06;7034928;28;20656;-80
2022/08/29 10:30:50;;;;;;;5.47;4.97;;;;;;;32.04;33.63;99030.66;7046009;28;20228;-81
2022/08/29 10:34:21;;;;;;;6.57;4.90;;;;;;;32.59;32.92;99022.81;7033636;28;20284;-81
2022/08/29 10:37:50;;;;;;;5.97;4.67;;;;;;;31.97;34.71;99019.22;7032258;28;20298;-81
2022/08/29 10:41:19;;;;;;;7.37;5.13;;;;;;;32.22;33.43;99021.00;7034134;28;20183;-80
2022/08/29 10:44:56;;;;;;;6.27;5.07;;;;;;;33.17;31.94;99002.13;7043640;28;20237;-81
2022/08/29 10:48:20;;;;;;;5.10;4.57;;;;;;;33.72;31.41;99019.19;7032873;28;20226;-80
2022/08/29 10:51:52;;;;;;;7.77;4.53;;;;;;;33.69;31.22;99001.13;7033370;28;20230;-80
2022/08/29 10:55:20;;;;;;;6.90;4.47;;;;;;;33.92;30.05;98981.88;7035400;28;20231;-80
2022/08/29 10:58:50;;;;;;;5.77;4.37;;;;;;;32.77;32.52;98999.16;7038439;28;20204;-80
2022/08/29 11:02:19;;;;;;;7.97;4.40;;;;;;;33.41;31.48;99000.22;7033706;28;20703;-80
2022/08/29 11:05:43;;;;;;;7.27;4.63;;;;;;;32.39;31.68;99003.31;7032164;28;20229;-82
2022/08/29 11:09:12;;;;;;;4.60;4.20;;;;;;;31.89;32.49;98983.84;7032082;28;20247;-80
2022/08/29 11:12:40;;;;;;;5.83;5.20;;;;;;;31.18;33.75;98997.97;7031842;28;20238;-80
2022/08/29 11:16:08;;;;;;;7.73;5.10;;;;;;;31.46;33.79;98996.38;7031670;28;20272;-80
2022/08/29 11:19:35;;;;;;;7.20;4.63;;;;;;;31.57;33.57;99004.06;7030120;28;20287;-79
2022/08/29 11:23:01;;;;;;;6.30;4.63;;;;;;;30.91;33.25;98995.63;7016722;28;20236;-81
2022/08/29 11:26:31;;;;;;;5.57;4.87;;;;;;;30.58;34.67;98986.19;7013029;28;20236;-80
2022/08/29 11:29:57;;;;;;;5.07;4.40;;;;;;;30.50;34.23;98992.59;7031369;28;20708;-81
2022/08/29 11:33:28;;;;;;;5.57;4.37;;;;;;;31.41;31.77;98963.97;7031434;28;20228;-81
2022/08/29 11:37:05;;;;;;;4.30;3.90;;;;;;;31.81;31.12;98975.53;7030963;28;20288;-82
2022/08/29 11:40:39;;;;;;;4.77;4.30;;;;;;;31.11;32.98;98958.69;7030670;28;20184;-81
2022/08/29 11:44:22;;;;;;;4.70;4.13;;;;;;;31.68;31.32;98979.38;7010185;28;20354;-81
2022/08/29 11:47:58;;;;;;;5.80;4.10;;;;;;;31.61;31.19;98965.16;6999297;28;20222;-80
2022/08/29 11:51:32;;;;;;;5.37;4.00;;;;;;;32.79;29.71;98971.69;7002473;28;20223;-81
2022/08/29 11:55:29;;;;;;;4.37;3.90;;;;;;;31.77;29.85;98974.59;7002472;28;20334;-80
2022/08/29 11:58:53;;;;;;;5.57;4.23;;;;;;;32.20;30.47;98969.47;7002727;28;20792;-80
2022/08/29 12:02:40;;;;;;;4.40;4.00;;;;;;;33.40;29.03;98967.84;7002592;28;20211;-82
2022/08/29 12:06:02;;;;;;;6.00;3.80;;;;;;;33.87;27.84;98954.97;7002256;28;20714;-81
2022/08/29 12:09:47;;;;;;;5.50;3.70;;;;;;;33.85;27.67;98959.28;7002305;28;20297;-80
2022/08/29 12:13:10;;;;;;;5.30;4.27;;;;;;;32.94;29.07;98971.03;7002817;28;20245;-79
2022/08/29 12:16:49;;;;;;;4.20;3.80;;;;;;;30.87;30.98;98953.72;7002680;28;20231;-80
2022/08/29 12:20:36;;;;;;;4.63;4.00;;;;;;;32.42;29.95;98960.75;7006721;28;20215;-79
2022/08/29 12:23:57;;;;;;;4.00;3.60;;;;;;;32.67;30.13;98954.06;7022284;28;20190;-79
2022/08/29 12:28:00;;;;;;;5.07;4.17;;;;;;;33.07;27.72;98955.91;7015339;28;20216;-80
2022/08/29 12:31:35;;;;;;;4.60;3.47;;;;;;;33.62;27.23;98949.75;7000945;28;20216;-80
2022/08/29 12:35:12;;;;;;;5.57;3.43;;;;;;;33.37;27.50;98948.94;7001092;28;20232;-79
2022/08/29 12:38:48;;;;;;;6.83;3.50;;;;;;;33.58;28.31;98938.44;7001372;28;20211;-79
2022/08/29 12:42:19;;;;;;;4.00;3.57;;;;;;;32.12;28.90;98923.75;7001470;28;20274;-79
2022/08/29 12:45:43;;;;;;;4.37;3.97;;;;;;;32.71;29.42;98927.06;7001464;28;20214;-80
2022/08/29 12:49:08;;;;;;;4.33;3.93;;;;;;;32.65;28.41;98920.91;7018559;28;20215;-80
2022/08/29 12:52:32;;;;;;;5.63;3.63;;;;;;;33.51;28.45;98923.41;7029265;28;20278;-80
2022/08/29 12:55:55;;;;;;;4.10;3.60;;;;;;;32.44;29.78;98920.16;7030326;28;20258;-80
2022/08/29 12:59:19;;;;;;;4.73;4.00;;;;;;;32.55;29.58;98918.53;7029461;28;20224;-80
2022/08/29 13:02:40;;;;;;;4.70;3.70;;;;;;;32.49;29.99;98910.75;7029216;28;20295;-80
2022/08/29 13:06:07;;;;;;;4.23;3.83;;;;;;;32.32;29.58;98908.16;7029441;28;20374;-80
2022/08/29 13:09:30;;;;;;;4.30;3.87;;;;;;;32.45;30.17;98907.00;7029310;28;20223;-80
2022/08/29 13:12:55;;;;;;;5.30;3.87;;;;;;;33.09;28.67;98910.84;7029501;28;20644;-81
2022/08/29 13:16:25;;;;;;;4.33;3.93;;;;;;;33.52;28.48;98906.31;7029983;28;20242;-81
2022/08/29 13:20:32;;;;;;;4.67;3.77;;;;;;;32.73;28.82;98888.47;7029645;28;20243;-80
2022/08/29 13:24:01;;;;;;;4.60;4.20;;;;;;;32.26;29.73;98895.56;7006479;28;20253;-80
2022/08/29 13:27:22;;;;;;;4.97;3.97;;;;;;;32.06;29.83;98910.34;7034931;28;20300;-81
2022/08/29 13:30:44;;;;;;;5.80;4.43;;;;;;;32.87;28.75;98895.38;7032331;28;21033;-81
2022/08/29 13:34:19;;;;;;;4.60;4.20;;;;;;;31.86;30.19;98880.50;7033748;28;20237;-81
2022/08/29 13:37:43;;;;;;;4.37;3.93;;;;;;;31.62;31.43;98895.13;7033652;28;20261;-81
2022/08/29 13:41:06;;;;;;;5.20;4.20;;;;;;;32.91;28.97;98873.13;7034239;28;20211;-81
2022/08/29 13:44:31;;;;;;;6.23;4.10;;;;;;;31.95;29.95;98890.41;7034336;28;20256;-80
2022/08/29 13:47:58;;;;;;;4.57;4.10;;;;;;;31.49;30.63;98848.78;7033270;28;20210;-80
2022/08/29 13:51:19;;;;;;;4.17;3.77;;;;;;;32.27;29.50;98884.06;7024473;28;20206;-81
2022/08/29 13:54:41;;;;;;;4.23;3.80;;;;;;;32.52;28.84;98882.97;7034306;28;20234;-80
2022/08/29 13:58:04;;;;;;;4.50;4.03;;;;;;;33.51;27.75;98898.25;7034182;28;20265;-81
2022/08/29 14:01:26;;;;;;;5.20;4.00;;;;;;;34.11;27.39;98892.47;7034634;28;20201;-80
2022/08/29 14:04:47;;;;;;;4.60;3.70;;;;;;;34.04;26.48;98889.50;7043257;28;20240;-80
2022/08/29 14:08:10;;;;;;;3.80;3.50;;;;;;;33.98;26.85;98888.94;7018040;28;20228;-81
2022/08/29 14:11:32;;;;;;;3.87;3.47;;;;;;;34.52;26.44;98883.66;7005485;28;20331;-80
2022/08/29 14:14:55;;;;;;;4.73;3.97;;;;;;;33.60;26.91;98876.56;7005054;28;20255;-80
2022/08/29 14:18:16;;;;;;;4.27;3.80;;;;;;;33.77;26.30;98882.72;7004805;28;20211;-80
2022/08/29 14:21:38;;;;;;;3.80;3.50;;;;;;;33.88;26.15;98861.47;7006225;28;20198;-80
2022/08/29 14:25:00;;;;;;;3.97;3.40;;;;;;;34.58;25.52;98877.44;7010064;28;20238;-82
2022/08/29 14:28:21;;;;;;;4.27;3.57;;;;;;;34.71;25.88;98878.16;7032116;28;20212;-81
2022/08/29 14:31:45;;;;;;;4.93;3.53;;;;;;;33.93;26.22;98875.19;7017425;28;20258;-80
2022/08/29 14:35:07;;;;;;;4.47;3.60;;;;;;;33.37;27.00;98862.28;7007205;28;20610;-80
2022/08/29 14:38:28;;;;;;;7.73;3.70;;;;;;;33.39;26.61;98859.13;7011865;28;20209;-80
2022/08/29 14:41:50;;;;;;;4.17;3.80;;;;;;;33.28;27.40;98858.81;7007325;28;20631;-80
2022/08/29 14:45:11;;;;;;;4.47;3.30;;;;;;;32.87;28.04;98861.84;7026307;28;20603;-81
2022/08/29 14:48:34;;;;;;;4.67;4.20;;;;;;;33.09;27.80;98854.97;7032121;28;20229;-81
2022/08/29 14:51:56;;;;;;;5.23;3.50;;;;;;;32.23;28.39;98863.56;7031862;28;20235;-80
2022/08/29 14:55:19;;;;;;;6.37;4.20;;;;;;;32.43;28.15;98854.31;7031113;28;20234;-80
2022/08/29 14:58:40;;;;;;;4.50;3.67;;;;;;;32.53;27.86;98845.50;7031224;28;20206;-80
2022/08/29 15:02:02;;;;;;;5.43;3.40;;;;;;;33.13;27.47;98839.13;7007322;28;20293;-81
2022/08/29 15:05:25;;;;;;;4.17;3.63;;;;;;;32.56;28.72;98839.22;7003754;28;20272;-80
2022/08/29 15:08:46;;;;;;;3.80;3.50;;;;;;;32.90;27.87;98844.38;7002875;28;20578;-80
2022/08/29 15:12:08;;;;;;;3.87;3.47;;;;;;;33.27;27.00;98837.63;7003298;28;20207;-81
2022/08/29 15:15:29;;;;;;;3.70;3.40;;;;;;;33.10;26.81;98846.22;7002867;28;20233;-80
2022/08/29 15:18:51;;;;;;;4.47;4.07;;;;;;;33.17;27.20;98840.03;7003177;28;20637;-80
2022/08/29 15:22:14;;;;;;;5.17;3.70;;;;;;;32.89;27.16;98836.34;7005991;28;20280;-80
2022/08/29 15:25:35;;;;;;;5.53;3.77;;;;;;;32.96;27.50;98836.59;7025244;28;20218;-80
2022/08/29 15:28:57;;;;;;;5.83;3.70;;;;;;;32.85;27.78;98832.63;7013651;28;20227;-81
2022/08/29 15:32:19;;;;;;;4.20;3.80;;;;;;;32.39;27.61;98828.28;7015237;28;20233;-80
2022/08/29 15:35:40;;;;;;;6.63;3.83;;;;;;;32.27;27.84;98813.47;7020566;28;20675;-81
2022/08/29 15:39:04;;;;;;;5.37;3.73;;;;;;;32.42;28.08;98816.41;7012699;28;20300;-80
2022/08/29 15:42:29;;;;;;;3.60;3.30;;;;;;;32.98;26.99;98787.56;7017195;28;20213;-80
2022/08/29 15:45:50;;;;;;;5.53;3.87;;;;;;;33.54;26.30;98813.66;7021578;28;20294;-81
2022/08/29 15:49:12;;;;;;;3.90;3.60;;;;;;;33.10;27.02;98807.09;7020920;28;20213;-81
2022/08/29 15:52:34;;;;;;;4.93;3.27;;;;;;;32.99;26.85;98788.38;7026884;28;20206;-81
2022/08/29 15:55:57;;;;;;;4.33;3.50;;;;;;;33.30;27.21;98796.97;7004168;28;20238;-80
2022/08/29 15:59:19;;;;;;;4.87;3.40;;;;;;;33.02;27.63;98779.28;7016190;28;20570;-80
2022/08/29 16:02:41;;;;;;;4.03;3.73;;;;;;;32.24;28.28;98795.44;7013769;28;20199;-81
2022/08/29 16:06:03;;;;;;;3.90;3.50;;;;;;;32.09;28.22;98795.25;7025592;28;20278;-79